Time;durP1;ratioP1;P1;durP2;ratioP2;P2;SDS_P1;SDS_P2;PMS_P1;PMS_P2;Temp;Humidity;BMP_temperature;BMP_pressure;BME280_temperature;BME280_humidity;BME280_pressure;Samples;Min_cycle;Max_cycle;Signal;HPM_P1;HPM_P2
2022/08/20 00:00:26;;;;;;;10.68;5.85;;;20.80;99.90;;;;;;5036424;28;20167;-66
2022/08/20 00:02:56;;;;;;;9.75;5.85;;;20.80;99.90;;;;;;5045959;28;20064;-66
2022/08/20 00:05:31;;;;;;;10.43;5.55;;;20.80;99.90;;;;;;5033153;28;20521;-66
2022/08/20 00:07:57;;;;;;;8.38;5.78;;;20.80;99.90;;;;;;5040577;28;20076;-65
2022/08/20 00:10:24;;;;;;;9.30;5.93;;;20.70;99.90;;;;;;5034960;28;20128;-65
2022/08/20 00:12:50;;;;;;;12.43;6.18;;;20.70;99.90;;;;;;5049113;28;20164;-66
2022/08/20 00:15:20;;;;;;;10.68;5.80;;;20.60;99.90;;;;;;5043460;28;20194;-66
2022/08/20 00:17:49;;;;;;;9.75;5.68;;;20.60;99.90;;;;;;5041918;28;20151;-65
2022/08/20 00:20:17;;;;;;;8.43;5.70;;;20.60;99.90;;;;;;5036007;28;20040;-66
2022/08/20 00:22:42;;;;;;;10.30;5.75;;;20.60;99.90;;;;;;5041888;28;20033;-66
2022/08/20 00:25:09;;;;;;;10.70;5.70;;;20.50;99.90;;;;;;5034351;28;20123;-65
2022/08/20 00:27:35;;;;;;;9.40;5.47;;;20.50;99.90;;;;;;5032350;28;20045;-66
2022/08/20 00:30:04;;;;;;;9.23;5.60;;;20.50;99.90;;;;;;5033147;28;20115;-66
2022/08/20 00:32:30;;;;;;;8.38;5.20;;;20.40;99.90;;;;;;5042654;28;20041;-66
2022/08/20 00:34:56;;;;;;;7.70;5.40;;;20.40;99.90;;;;;;5038059;28;20074;-65
2022/08/20 00:37:21;;;;;;;13.05;5.55;;;20.40;99.90;;;;;;5036774;28;20341;-65
2022/08/20 00:39:47;;;;;;;11.57;5.43;;;20.30;99.90;;;;;;5035743;28;20049;-66
2022/08/20 00:42:13;;;;;;;9.45;5.22;;;20.40;99.90;;;;;;5042436;28;20041;-66
2022/08/20 00:44:45;;;;;;;9.02;5.85;;;20.30;99.90;;;;;;5037471;28;20334;-66
2022/08/20 00:47:11;;;;;;;12.57;5.95;;;20.30;99.90;;;;;;5037393;28;20130;-66
2022/08/20 00:49:36;;;;;;;9.60;5.30;;;20.20;99.90;;;;;;5033190;28;20036;-66
2022/08/20 00:52:07;;;;;;;11.95;5.90;;;20.20;99.90;;;;;;5038873;28;20049;-65
2022/08/20 00:54:55;;;;;;;11.38;5.05;;;20.20;99.90;;;;;;5037189;28;20041;-66
2022/08/20 00:57:27;;;;;;;12.98;5.63;;;20.20;99.90;;;;;;5045095;28;20053;-66
2022/08/20 00:59:53;;;;;;;12.80;5.28;;;20.20;99.90;;;;;;5038127;28;20120;-66
2022/08/20 01:02:21;;;;;;;9.75;5.53;;;20.10;99.90;;;;;;5033635;28;20183;-66
2022/08/20 01:04:52;;;;;;;11.90;5.10;;;20.20;99.90;;;;;;5038995;28;20500;-66
2022/08/20 01:07:19;;;;;;;10.30;4.85;;;20.20;99.90;;;;;;5037990;28;20460;-66
2022/08/20 01:09:46;;;;;;;12.27;5.85;;;20.20;99.90;;;;;;5034849;28;20052;-66
2022/08/20 01:12:13;;;;;;;9.63;5.65;;;20.20;99.90;;;;;;5042756;28;20064;-66
2022/08/20 01:14:44;;;;;;;10.75;5.15;;;20.20;99.90;;;;;;5044500;28;20048;-66
2022/08/20 01:17:16;;;;;;;14.10;5.70;;;20.20;99.90;;;;;;5038254;28;20032;-67
2022/08/20 01:19:50;;;;;;;10.65;5.43;;;20.20;99.90;;;;;;5043857;28;20053;-66
2022/08/20 01:25:43;;;;;;;12.07;5.85;;;20.20;99.90;;;;;;5039492;28;20057;-65
2022/08/20 01:28:11;;;;;;;12.57;6.30;;;20.10;99.90;;;;;;5033341;28;20132;-65
2022/08/20 01:30:36;;;;;;;10.70;5.97;;;20.10;99.90;;;;;;5035999;28;20092;-65
2022/08/20 01:33:03;;;;;;;11.15;6.75;;;20.10;99.90;;;;;;5030690;28;20049;-65
2022/08/20 01:35:29;;;;;;;11.43;6.28;;;20.00;99.90;;;;;;5039279;28;20075;-65
2022/08/20 01:37:54;;;;;;;12.82;7.20;;;20.00;99.90;;;;;;5035696;28;20160;-65
2022/08/20 01:40:34;;;;;;;11.95;6.72;;;20.00;99.90;;;;;;5040874;28;20037;-65
2022/08/20 01:43:01;;;;;;;10.77;6.90;;;19.90;99.90;;;;;;5038531;28;20048;-65
2022/08/20 01:45:27;;;;;;;13.20;7.25;;;19.90;99.90;;;;;;5034711;28;20061;-65
2022/08/20 01:47:53;;;;;;;11.48;6.75;;;19.90;99.90;;;;;;5037363;28;20041;-65
2022/08/20 01:50:23;;;;;;;17.20;7.65;;;19.80;99.90;;;;;;5038560;28;20041;-65
2022/08/20 01:53:07;;;;;;;14.13;7.10;;;19.80;99.90;;;;;;5031029;28;20080;-65
2022/08/20 01:55:33;;;;;;;11.82;6.90;;;19.80;99.90;;;;;;5028696;28;20049;-65
2022/08/20 01:58:00;;;;;;;13.43;7.50;;;19.80;99.90;;;;;;5028536;28;20075;-65
2022/08/20 02:00:25;;;;;;;13.63;7.35;;;19.80;99.90;;;;;;5028855;28;20408;-65
2022/08/20 02:02:51;;;;;;;13.05;6.88;;;19.80;99.90;;;;;;5039099;28;20261;-64
2022/08/20 02:05:18;;;;;;;10.73;6.78;;;19.80;99.90;;;;;;5035483;28;20116;-65
2022/08/20 02:07:45;;;;;;;11.48;6.82;;;19.80;99.90;;;;;;5033100;28;20049;-65
2022/08/20 02:10:14;;;;;;;11.48;6.82;;;19.80;99.90;;;;;;5030092;28;20053;-66
2022/08/20 02:12:39;;;;;;;12.85;6.65;;;19.90;99.90;;;;;;5032694;28;20055;-65
2022/08/20 02:15:09;;;;;;;13.50;7.15;;;19.90;99.90;;;;;;5039755;28;20041;-65
2022/08/20 02:17:35;;;;;;;14.35;6.88;;;19.90;99.90;;;;;;5040117;28;20049;-65
2022/08/20 02:20:06;;;;;;;12.50;6.65;;;19.80;99.90;;;;;;5036969;28;20136;-65
2022/08/20 02:22:38;;;;;;;11.98;6.40;;;19.80;99.90;;;;;;5038342;28;20045;-65
2022/08/20 02:25:06;;;;;;;12.18;6.50;;;19.90;99.90;;;;;;5036976;28;20032;-65
2022/08/20 02:27:32;;;;;;;12.35;6.38;;;19.80;99.90;;;;;;5037397;28;20306;-65
2022/08/20 02:29:57;;;;;;;11.15;6.25;;;19.80;99.90;;;;;;5039829;28;20094;-65
2022/08/20 02:32:24;;;;;;;10.05;6.70;;;19.80;99.90;;;;;;5031539;28;20415;-65
2022/08/20 02:34:49;;;;;;;11.15;6.40;;;19.80;99.90;;;;;;5034459;28;20044;-65
2022/08/20 02:37:17;;;;;;;12.45;6.75;;;19.80;99.90;;;;;;5028704;28;20711;-65
2022/08/20 02:39:43;;;;;;;10.70;6.95;;;19.80;99.90;;;;;;5027046;28;20053;-65
2022/08/20 02:42:11;;;;;;;13.77;7.00;;;19.70;99.90;;;;;;5030129;28;20037;-64
2022/08/20 02:44:37;;;;;;;11.20;6.22;;;19.70;99.90;;;;;;5028841;28;20461;-65
2022/08/20 02:47:04;;;;;;;11.77;5.97;;;19.80;99.90;;;;;;5033961;28;20060;-66
2022/08/20 02:49:30;;;;;;;11.35;6.53;;;19.70;99.90;;;;;;5028421;28;20132;-65
2022/08/20 02:51:55;;;;;;;11.10;6.85;;;19.70;99.90;;;;;;5031151;28;20042;-65
2022/08/20 02:54:21;;;;;;;13.40;6.60;;;19.60;99.90;;;;;;5025974;28;20045;-65
2022/08/20 02:56:47;;;;;;;13.15;6.85;;;19.60;99.90;;;;;;5026200;28;20052;-65
2022/08/20 02:59:12;;;;;;;13.98;6.85;;;19.60;99.90;;;;;;5031619;28;20065;-65
2022/08/20 03:01:38;;;;;;;10.95;6.10;;;19.60;99.90;;;;;;5044315;28;20041;-65
2022/08/20 03:04:04;;;;;;;11.77;6.53;;;19.60;99.90;;;;;;5031925;28;20130;-65
2022/08/20 03:06:29;;;;;;;10.80;6.85;;;19.60;99.90;;;;;;5031099;28;20080;-66
2022/08/20 03:08:55;;;;;;;11.50;6.75;;;19.50;99.90;;;;;;5022884;28;20061;-65
2022/08/20 03:11:20;;;;;;;9.70;6.57;;;19.60;99.90;;;;;;5026450;28;20048;-65
2022/08/20 03:13:46;;;;;;;13.55;6.72;;;19.60;99.90;;;;;;5029612;28;20121;-65
2022/08/20 03:16:13;;;;;;;12.52;6.90;;;19.50;99.90;;;;;;5035867;28;20060;-65
2022/08/20 03:18:43;;;;;;;10.20;6.22;;;19.50;99.90;;;;;;5040944;28;20206;-66
2022/08/20 03:21:10;;;;;;;11.00;6.38;;;19.50;99.90;;;;;;5046733;28;20446;-65
2022/08/20 03:23:37;;;;;;;10.75;6.18;;;19.50;99.90;;;;;;5044572;28;20051;-65
2022/08/20 03:26:05;;;;;;;11.60;7.00;;;19.50;99.90;;;;;;5048107;28;20037;-65
2022/08/20 03:28:31;;;;;;;11.68;6.45;;;19.50;99.90;;;;;;5040170;28;20047;-66
2022/08/20 03:30:58;;;;;;;12.70;6.78;;;19.50;99.90;;;;;;5035344;28;20042;-66
2022/08/20 03:33:24;;;;;;;11.20;6.32;;;19.50;99.90;;;;;;5041389;28;20395;-66
2022/08/20 03:35:50;;;;;;;11.23;6.95;;;19.50;99.90;;;;;;5038766;28;20049;-66
2022/08/20 03:38:18;;;;;;;9.27;5.97;;;19.50;99.90;;;;;;5044817;28;20049;-66
2022/08/20 03:40:44;;;;;;;14.85;7.10;;;19.50;99.90;;;;;;5047197;28;20445;-66
2022/08/20 03:43:10;;;;;;;10.05;5.95;;;19.50;99.90;;;;;;5046847;28;20037;-65
2022/08/20 03:45:38;;;;;;;13.45;6.65;;;19.40;99.90;;;;;;5042486;28;20037;-65
2022/08/20 03:48:06;;;;;;;10.65;6.47;;;19.40;99.90;;;;;;5057471;28;20112;-65
2022/08/20 03:50:33;;;;;;;13.43;7.07;;;19.40;99.90;;;;;;5031056;28;20076;-65
2022/08/20 03:52:59;;;;;;;12.30;6.38;;;19.40;99.90;;;;;;5040298;28;20128;-65
2022/08/20 03:55:28;;;;;;;11.15;6.25;;;19.30;99.90;;;;;;5043821;28;20049;-65
2022/08/20 03:57:57;;;;;;;12.60;6.72;;;19.30;99.90;;;;;;5039308;28;20048;-65
2022/08/20 04:00:27;;;;;;;15.45;6.82;;;19.30;99.90;;;;;;5032024;28;20041;-65
2022/08/20 04:02:52;;;;;;;12.48;6.85;;;19.30;99.90;;;;;;5033347;28;20045;-65
2022/08/20 04:05:18;;;;;;;11.60;6.75;;;19.40;99.90;;;;;;5037443;28;20506;-65
2022/08/20 04:07:43;;;;;;;12.70;6.53;;;19.30;99.90;;;;;;5042662;28;20033;-65
2022/08/20 04:10:11;;;;;;;13.38;6.88;;;19.20;99.90;;;;;;5032811;28;20105;-65
2022/08/20 04:12:39;;;;;;;12.15;6.13;;;19.20;99.90;;;;;;5042635;28;20107;-65
2022/08/20 04:15:10;;;;;;;12.10;6.57;;;19.20;99.90;;;;;;5042099;28;20049;-65
2022/08/20 04:17:39;;;;;;;11.93;5.88;;;19.10;99.90;;;;;;5046840;28;20033;-65
2022/08/20 04:20:05;;;;;;;12.38;6.30;;;19.10;99.90;;;;;;5032130;28;20441;-65
2022/08/20 04:22:31;;;;;;;11.18;5.65;;;19.10;99.90;;;;;;5039341;28;20210;-65
2022/08/20 04:24:56;;;;;;;15.68;6.15;;;19.00;99.90;;;;;;5044321;28;20120;-65
2022/08/20 04:27:22;;;;;;;9.88;5.90;;;19.00;99.90;;;;;;5036485;28;20052;-66
2022/08/20 04:29:47;;;;;;;12.73;6.03;;;19.00;99.90;;;;;;5041007;28;20062;-66
2022/08/20 04:32:13;;;;;;;11.68;5.78;;;19.00;99.90;;;;;;5041888;28;20037;-66
2022/08/20 04:34:39;;;;;;;11.32;6.38;;;19.00;99.90;;;;;;5035948;28;20041;-66
2022/08/20 04:37:05;;;;;;;9.82;5.53;;;18.90;99.90;;;;;;5043005;28;20399;-66
2022/08/20 04:39:31;;;;;;;11.10;5.75;;;18.90;99.90;;;;;;5045612;28;20044;-66
2022/08/20 04:41:57;;;;;;;13.35;5.85;;;18.90;99.90;;;;;;5036964;28;20045;-66
2022/08/20 04:44:23;;;;;;;9.63;5.68;;;18.90;99.90;;;;;;5038235;28;20098;-66
2022/08/20 04:46:49;;;;;;;9.48;5.70;;;18.90;99.90;;;;;;5039625;28;20554;-66
2022/08/20 04:49:14;;;;;;;11.35;5.43;;;18.90;99.90;;;;;;5047480;28;20059;-65
2022/08/20 04:51:40;;;;;;;9.48;5.95;;;18.80;99.90;;;;;;5034642;28;20037;-65
2022/08/20 04:54:05;;;;;;;10.00;5.25;;;18.90;99.90;;;;;;5034074;28;20376;-65
2022/08/20 04:56:37;;;;;;;11.75;5.40;;;18.90;99.90;;;;;;5036383;28;20144;-66
2022/08/20 04:59:03;;;;;;;8.90;4.80;;;18.90;99.90;;;;;;5037889;28;20060;-65
2022/08/20 05:01:29;;;;;;;9.90;4.80;;;18.90;99.90;;;;;;5033872;28;20052;-66
2022/08/20 05:03:56;;;;;;;12.27;5.20;;;18.80;99.90;;;;;;5043875;28;20362;-66
2022/08/20 05:06:25;;;;;;;12.32;5.10;;;18.80;99.90;;;;;;5040953;28;20155;-64
2022/08/20 05:08:52;;;;;;;13.57;4.88;;;18.90;99.90;;;;;;5039279;28;20495;-65
2022/08/20 05:11:20;;;;;;;10.93;4.85;;;18.90;99.90;;;;;;5038486;28;20041;-65
2022/08/20 05:13:45;;;;;;;9.75;4.72;;;18.90;99.90;;;;;;5036406;28;20045;-66
2022/08/20 05:16:11;;;;;;;11.68;4.88;;;19.00;99.90;;;;;;5031920;28;20041;-66
2022/08/20 05:18:37;;;;;;;10.38;4.28;;;19.00;99.90;;;;;;5043862;28;20384;-65
2022/08/20 05:21:04;;;;;;;11.40;4.22;;;19.00;99.90;;;;;;5039927;28;20166;-65
2022/08/20 05:23:35;;;;;;;9.23;4.05;;;19.10;99.90;;;;;;5042266;28;20375;-65
2022/08/20 05:26:04;;;;;;;9.63;4.03;;;19.10;99.90;;;;;;5036729;28;20125;-65
2022/08/20 05:28:31;;;;;;;12.27;5.00;;;19.10;99.90;;;;;;5042041;28;20047;-65
2022/08/20 05:30:59;;;;;;;8.80;4.13;;;19.20;99.90;;;;;;5029891;28;20072;-65
2022/08/20 05:33:25;;;;;;;11.40;4.28;;;19.20;99.90;;;;;;5043018;28;20041;-66
2022/08/20 05:35:52;;;;;;;10.73;4.25;;;19.30;99.90;;;;;;5041441;28;20076;-64
2022/08/20 05:38:19;;;;;;;10.93;4.40;;;19.40;99.90;;;;;;5035208;28;20041;-65
2022/08/20 05:40:47;;;;;;;9.38;4.20;;;19.40;99.90;;;;;;5038434;28;20044;-66
2022/08/20 05:43:13;;;;;;;9.82;4.20;;;19.40;99.90;;;;;;5038888;28;20155;-65
2022/08/20 05:45:41;;;;;;;10.38;4.60;;;19.40;99.90;;;;;;5038703;28;20052;-65
2022/08/20 05:48:18;;;;;;;14.18;5.72;;;19.50;99.90;;;;;;5044986;28;20518;-65
2022/08/20 05:50:45;;;;;;;9.30;4.18;;;19.60;99.90;;;;;;5030959;28;20120;-65
2022/08/20 05:53:11;;;;;;;10.55;3.92;;;19.60;99.90;;;;;;5038628;28;20207;-66
2022/08/20 05:55:38;;;;;;;11.65;3.35;;;19.80;99.90;;;;;;5038085;28;20200;-66
2022/08/20 05:58:08;;;;;;;7.28;3.30;;;19.80;99.90;;;;;;5037746;28;20041;-66
2022/08/20 06:00:34;;;;;;;10.23;3.55;;;19.90;99.90;;;;;;5030407;28;20542;-66
2022/08/20 06:05:45;;;;;;;9.70;3.35;;;19.90;99.90;;;;;;5028942;28;20068;-66
2022/08/20 06:08:11;;;;;;;12.00;3.35;;;19.90;99.90;;;;;;5024351;28;20053;-65
2022/08/20 06:10:38;;;;;;;9.05;3.13;;;19.90;99.90;;;;;;5024456;28;20144;-65
2022/08/20 06:13:05;;;;;;;8.98;2.92;;;20.00;99.90;;;;;;5025852;28;20034;-65
2022/08/20 06:15:32;;;;;;;8.02;2.75;;;20.00;99.90;;;;;;5025757;28;20492;-66
2022/08/20 06:17:57;;;;;;;7.82;2.67;;;20.10;99.90;;;;;;5028527;28;20069;-67
2022/08/20 06:20:23;;;;;;;6.53;2.38;;;20.20;99.90;;;;;;5024756;28;20061;-66
2022/08/20 06:22:49;;;;;;;9.60;2.83;;;20.30;99.90;;;;;;5025781;28;20128;-66
2022/08/20 06:25:14;;;;;;;8.57;2.75;;;20.50;99.90;;;;;;5026346;28;20045;-66
2022/08/20 06:27:42;;;;;;;9.00;2.67;;;20.60;99.90;;;;;;5022087;28;20041;-66
2022/08/20 06:30:10;;;;;;;8.63;2.30;;;20.70;99.90;;;;;;5024916;28;20038;-66
2022/08/20 06:32:36;;;;;;;8.02;2.55;;;20.80;99.90;;;;;;5027187;28;20061;-66
2022/08/20 06:35:05;;;;;;;8.00;2.35;;;20.90;99.90;;;;;;5027728;28;20056;-66
2022/08/20 06:37:35;;;;;;;8.00;2.03;;;20.90;99.90;;;;;;5033846;28;20064;-67
2022/08/20 06:40:13;;;;;;;7.57;2.30;;;20.90;99.90;;;;;;5039292;28;20057;-66
2022/08/20 06:42:40;;;;;;;8.75;2.40;;;20.80;99.90;;;;;;5040836;28;20144;-66
2022/08/20 06:45:06;;;;;;;7.15;2.20;;;20.80;99.90;;;;;;5035539;28;20042;-66
2022/08/20 06:47:32;;;;;;;11.80;2.60;;;20.80;99.90;;;;;;5036959;28;20041;-65
2022/08/20 06:49:58;;;;;;;7.95;2.15;;;20.60;99.90;;;;;;5042092;28;20041;-65
2022/08/20 06:52:23;;;;;;;9.85;2.00;;;20.60;99.90;;;;;;5051673;28;20399;-66
2022/08/20 06:54:49;;;;;;;9.65;2.08;;;20.60;99.90;;;;;;5045944;28;20415;-65
2022/08/20 06:57:16;;;;;;;8.25;1.83;;;20.80;99.90;;;;;;5046462;28;20041;-65
2022/08/20 06:59:41;;;;;;;7.72;2.05;;;21.00;99.90;;;;;;5036572;28;20048;-66
2022/08/20 07:02:07;;;;;;;7.63;1.77;;;20.90;99.90;;;;;;5036018;28;20363;-66
2022/08/20 07:04:33;;;;;;;5.97;1.98;;;21.00;99.90;;;;;;5045348;28;20029;-66
2022/08/20 07:06:58;;;;;;;7.78;1.70;;;21.20;99.90;;;;;;5044715;28;20223;-66
2022/08/20 07:09:25;;;;;;;6.95;1.40;;;21.30;99.90;;;;;;5007830;28;1033189;-66
2022/08/20 07:11:51;;;;;;;5.38;1.30;;;21.50;99.90;;;;;;5031391;28;20061;-67
2022/08/20 07:14:18;;;;;;;8.10;1.73;;;21.60;99.90;;;;;;5030156;28;20094;-66
2022/08/20 07:16:45;;;;;;;6.78;1.23;;;21.70;99.90;;;;;;5039726;28;20036;-65
2022/08/20 07:19:11;;;;;;;6.03;1.42;;;21.80;99.90;;;;;;5033194;28;20111;-66
2022/08/20 07:21:37;;;;;;;6.38;1.40;;;21.90;99.90;;;;;;5044565;28;20041;-67
2022/08/20 07:24:03;;;;;;;7.32;1.58;;;21.90;99.90;;;;;;5031680;28;20159;-66
2022/08/20 07:26:28;;;;;;;6.70;1.20;;;21.90;99.90;;;;;;5046168;28;20045;-66
2022/08/20 07:28:54;;;;;;;8.20;1.75;;;21.90;99.90;;;;;;5034644;28;20041;-68
2022/08/20 07:34:04;;;;;;;;;;;21.90;99.90;;;;;;5039079;28;20045;-66
2022/08/20 07:36:30;;;;;;;26.45;6.75;;;22.00;99.90;;;;;;5043049;28;20394;-65
2022/08/20 07:38:56;;;;;;;8.13;2.20;;;22.00;99.90;;;;;;5043749;28;20037;-67
2022/08/20 07:41:21;;;;;;;4.68;1.30;;;22.10;99.90;;;;;;5039886;28;20037;-66
2022/08/20 07:43:47;;;;;;;12.30;3.00;;;22.10;99.90;;;;;;5039752;28;20041;-66
2022/08/20 07:46:17;;;;;;;11.88;2.60;;;22.20;99.90;;;;;;5042783;28;20045;-66
2022/08/20 07:48:45;;;;;;;5.93;1.50;;;22.30;99.90;;;;;;5036201;28;20703;-66
2022/08/20 07:51:13;;;;;;;6.70;1.50;;;22.40;99.90;;;;;;5040997;28;20135;-66
2022/08/20 07:53:39;;;;;;;8.23;2.08;;;22.30;99.90;;;;;;5039427;28;20054;-67
2022/08/20 07:56:11;;;;;;;7.35;1.33;;;22.30;99.90;;;;;;5043673;28;20037;-67
2022/08/20 07:58:40;;;;;;;6.03;1.48;;;22.30;99.90;;;;;;5042883;28;20135;-69
2022/08/20 08:01:06;;;;;;;6.95;1.30;;;22.40;99.90;;;;;;5042648;28;20041;-63
2022/08/20 08:03:33;;;;;;;8.02;1.33;;;22.50;99.40;;;;;;5049597;28;20049;-65
2022/08/20 08:05:59;;;;;;;6.55;1.23;;;22.50;98.90;;;;;;5051132;28;20120;-64
2022/08/20 08:08:27;;;;;;;8.60;1.30;;;22.60;98.50;;;;;;5038018;28;20033;-64
2022/08/20 08:10:56;;;;;;;6.88;1.40;;;22.60;98.00;;;;;;5044555;28;20472;-64
2022/08/20 08:13:25;;;;;;;5.82;1.23;;;22.60;98.10;;;;;;5042215;28;20040;-64
2022/08/20 08:15:52;;;;;;;6.63;1.30;;;22.60;97.90;;;;;;5040602;28;20087;-64
2022/08/20 08:18:23;;;;;;;6.60;1.27;;;22.70;97.70;;;;;;5038694;28;20041;-64
2022/08/20 08:20:52;;;;;;;5.82;1.30;;;22.80;97.30;;;;;;5042360;28;20037;-65
2022/08/20 08:23:19;;;;;;;6.45;1.60;;;22.90;97.10;;;;;;5038147;28;20490;-65
2022/08/20 08:25:44;;;;;;;7.35;1.25;;;23.00;97.40;;;;;;5050429;28;20037;-65
2022/08/20 08:28:11;;;;;;;6.00;1.45;;;23.00;96.80;;;;;;5050899;28;20322;-65
2022/08/20 08:30:39;;;;;;;5.72;1.40;;;23.10;96.50;;;;;;5043827;28;20041;-65
2022/08/20 08:35:50;;;;;;;5.50;1.35;;;23.10;95.60;;;;;;5050604;28;20131;-65
2022/08/20 08:38:17;;;;;;;5.75;1.25;;;23.10;95.40;;;;;;5047364;28;20055;-66
2022/08/20 08:40:43;;;;;;;5.20;1.23;;;23.20;96.00;;;;;;5041977;28;20156;-66
2022/08/20 08:43:12;;;;;;;9.48;2.13;;;23.30;95.50;;;;;;5039747;28;20094;-65
2022/08/20 08:45:47;;;;;;;6.88;1.08;;;23.40;95.10;;;;;;5042327;28;20049;-65
2022/08/20 08:48:15;;;;;;;4.93;1.50;;;23.50;94.50;;;;;;5044349;28;20136;-65
2022/08/20 08:50:44;;;;;;;5.38;1.35;;;23.50;94.70;;;;;;5050660;28;20128;-65
2022/08/20 08:53:18;;;;;;;5.40;1.05;;;23.60;94.80;;;;;;5046724;28;20369;-66
2022/08/20 08:55:44;;;;;;;4.55;1.15;;;23.50;94.30;;;;;;5047535;28;20045;-67
2022/08/20 08:58:10;;;;;;;5.78;1.10;;;23.60;94.60;;;;;;5034682;28;20080;-67
2022/08/20 09:00:36;;;;;;;6.88;1.27;;;23.60;94.20;;;;;;5035344;28;20072;-66
2022/08/20 09:03:08;;;;;;;5.30;1.30;;;23.50;93.10;;;;;;5040632;28;20041;-65
2022/08/20 09:05:52;;;;;;;7.15;1.25;;;23.60;92.70;;;;;;5034567;28;20587;-64
2022/08/20 09:08:26;;;;;;;4.03;1.17;;;23.60;93.10;;;;;;5039602;28;20765;-65
2022/08/20 09:10:51;;;;;;;4.50;1.00;;;23.60;92.70;;;;;;5042766;28;20122;-64
2022/08/20 09:13:17;;;;;;;5.40;1.30;;;23.60;92.20;;;;;;5047328;28;20045;-64
2022/08/20 09:15:43;;;;;;;7.88;1.65;;;23.60;91.90;;;;;;5038415;28;20072;-64
2022/08/20 09:18:08;;;;;;;4.35;0.93;;;23.50;91.30;;;;;;5035131;28;20053;-63
2022/08/20 09:20:34;;;;;;;5.35;1.30;;;23.70;91.10;;;;;;5032426;28;20130;-63
2022/08/20 09:22:59;;;;;;;5.57;1.30;;;23.60;91.10;;;;;;5042180;28;20075;-64
2022/08/20 09:25:25;;;;;;;6.00;1.30;;;23.50;89.80;;;;;;5046697;28;20133;-64
2022/08/20 09:27:51;;;;;;;8.05;1.60;;;23.60;90.60;;;;;;5045344;28;20037;-63
2022/08/20 09:30:17;;;;;;;4.03;1.00;;;23.60;90.90;;;;;;5055672;28;20045;-62
2022/08/20 09:32:43;;;;;;;3.83;1.20;;;23.70;90.60;;;;;;5045869;28;20032;-65
2022/08/20 09:35:10;;;;;;;6.00;1.20;;;23.80;91.20;;;;;;5040144;28;20169;-64
2022/08/20 09:37:36;;;;;;;6.65;1.27;;;23.90;90.20;;;;;;5041221;28;20407;-65
2022/08/20 09:40:02;;;;;;;10.63;1.83;;;23.90;89.90;;;;;;5043345;28;20132;-64
2022/08/20 09:42:31;;;;;;;10.55;1.52;;;23.90;89.50;;;;;;5047484;28;20116;-64
2022/08/20 09:44:58;;;;;;;9.55;1.50;;;23.90;90.00;;;;;;5040423;28;20041;-65
2022/08/20 09:47:24;;;;;;;18.10;2.03;;;23.90;90.10;;;;;;5048102;28;20068;-65
2022/08/20 09:49:49;;;;;;;6.18;1.10;;;24.10;90.60;;;;;;5042490;28;20096;-66
2022/08/20 09:52:28;;;;;;;6.13;1.30;;;24.10;90.10;;;;;;5047188;28;20543;-65
2022/08/20 09:54:57;;;;;;;27.73;3.35;;;24.00;88.50;;;;;;5037835;28;20118;-64
2022/08/20 09:57:24;;;;;;;17.20;2.30;;;24.10;88.30;;;;;;5034782;28;20042;-64
2022/08/20 09:59:55;;;;;;;5.00;1.10;;;24.10;86.40;;;;;;5035793;28;20037;-64
2022/08/20 10:02:22;;;;;;;6.45;1.20;;;24.20;85.40;;;;;;5038220;28;20098;-64
2022/08/20 10:04:47;;;;;;;10.05;1.73;;;24.20;84.90;;;;;;5036517;28;20036;-64
2022/08/20 10:07:13;;;;;;;6.53;1.40;;;24.30;85.70;;;;;;5035986;28;20038;-64
2022/08/20 10:09:38;;;;;;;6.88;1.20;;;24.30;83.00;;;;;;5031829;28;20046;-64
2022/08/20 10:12:04;;;;;;;11.93;1.73;;;24.30;82.70;;;;;;5037121;28;20492;-65
2022/08/20 10:14:30;;;;;;;7.82;1.27;;;24.30;84.20;;;;;;5043099;28;20048;-65
2022/08/20 10:17:00;;;;;;;7.05;1.30;;;24.30;82.80;;;;;;5040027;28;20424;-66
2022/08/20 10:19:27;;;;;;;6.47;1.52;;;24.30;81.60;;;;;;5037542;28;20220;-65
2022/08/20 10:21:53;;;;;;;5.10;1.17;;;24.30;81.30;;;;;;5037590;28;20129;-65
2022/08/20 10:24:20;;;;;;;8.25;1.80;;;24.40;81.80;;;;;;5029617;28;20045;-65
2022/08/20 10:26:46;;;;;;;5.93;1.25;;;24.40;81.80;;;;;;5034266;28;20063;-65
2022/08/20 10:29:13;;;;;;;6.55;1.33;;;24.50;81.80;;;;;;5044675;28;20076;-65
2022/08/20 10:31:39;;;;;;;6.63;1.30;;;24.40;80.40;;;;;;5044729;28;20045;-65
2022/08/20 10:34:05;;;;;;;5.25;1.00;;;24.50;80.70;;;;;;5036984;28;20037;-65
2022/08/20 10:36:30;;;;;;;4.40;1.08;;;24.50;79.30;;;;;;5029787;28;20041;-66
2022/08/20 10:38:56;;;;;;;4.40;1.02;;;24.60;80.00;;;;;;5045980;28;20047;-65
2022/08/20 10:41:21;;;;;;;7.72;1.38;;;24.60;78.80;;;;;;5046976;28;20047;-65
2022/08/20 10:43:47;;;;;;;5.55;1.17;;;24.80;78.40;;;;;;5042026;28;20040;-65
2022/08/20 10:46:13;;;;;;;4.55;0.98;;;24.70;77.40;;;;;;5039518;28;20036;-65
2022/08/20 10:48:39;;;;;;;4.88;1.40;;;24.70;76.20;;;;;;5038988;28;20163;-66
2022/08/20 10:51:04;;;;;;;5.75;1.30;;;24.70;75.30;;;;;;5037867;28;20029;-66
2022/08/20 10:53:30;;;;;;;4.90;1.30;;;24.70;75.70;;;;;;5039950;28;20116;-66
2022/08/20 10:55:56;;;;;;;4.80;1.27;;;24.70;76.30;;;;;;5038958;28;20040;-66
2022/08/20 10:58:22;;;;;;;4.68;1.20;;;24.80;76.80;;;;;;5038106;28;20041;-65
2022/08/20 11:00:48;;;;;;;4.35;1.17;;;24.90;76.20;;;;;;5030036;28;20053;-68
2022/08/20 11:03:14;;;;;;;4.30;1.20;;;24.90;74.50;;;;;;5036588;28;20041;-66
2022/08/20 11:05:39;;;;;;;4.05;1.15;;;24.90;75.00;;;;;;5039560;28;20032;-68
2022/08/20 11:08:05;;;;;;;6.82;1.55;;;24.90;75.00;;;;;;5035282;28;20041;-69
2022/08/20 11:10:32;;;;;;;5.75;1.40;;;25.00;74.80;;;;;;5031510;28;20361;-65
2022/08/20 11:12:59;;;;;;;4.70;1.23;;;25.10;75.00;;;;;;5036065;28;20520;-69
2022/08/20 11:15:25;;;;;;;5.45;1.25;;;25.10;74.40;;;;;;5042035;28;20227;-67
2022/08/20 11:17:51;;;;;;;4.78;1.48;;;24.90;74.30;;;;;;5038280;28;20142;-66
2022/08/20 11:20:18;;;;;;;5.60;1.42;;;24.90;74.60;;;;;;5032948;28;20045;-65
2022/08/20 11:22:44;;;;;;;7.45;2.17;;;24.70;74.40;;;;;;5035645;28;20139;-66
2022/08/20 11:25:10;;;;;;;4.78;1.23;;;24.50;75.60;;;;;;5045774;28;20124;-65
2022/08/20 11:27:39;;;;;;;6.15;1.15;;;24.50;75.90;;;;;;5042816;28;20514;-66
2022/08/20 11:30:07;;;;;;;6.20;1.20;;;24.50;76.10;;;;;;5039360;28;20095;-64
2022/08/20 11:32:32;;;;;;;4.55;1.42;;;24.50;77.00;;;;;;5032658;28;20045;-63
2022/08/20 11:34:58;;;;;;;7.93;2.05;;;24.50;76.90;;;;;;5038576;28;20365;-66
2022/08/20 11:37:24;;;;;;;6.65;1.60;;;24.30;77.60;;;;;;5036436;28;20128;-66
2022/08/20 11:39:50;;;;;;;7.95;2.33;;;24.30;77.50;;;;;;5041526;28;20067;-66
2022/08/20 11:42:16;;;;;;;7.35;1.90;;;24.20;77.90;;;;;;5047248;28;20072;-68
2022/08/20 11:44:42;;;;;;;5.90;1.38;;;24.10;77.90;;;;;;5044960;28;20041;-65
2022/08/20 11:47:18;;;;;;;5.45;1.60;;;24.00;78.10;;;;;;5042594;28;20128;-66
2022/08/20 11:49:43;;;;;;;7.78;1.50;;;23.90;77.70;;;;;;5039751;28;20059;-64
2022/08/20 11:52:09;;;;;;;4.65;1.35;;;23.90;77.40;;;;;;5040939;28;20037;-65
2022/08/20 11:54:39;;;;;;;5.57;1.50;;;24.00;76.90;;;;;;5047578;28;20036;-65
2022/08/20 11:57:04;;;;;;;4.93;1.20;;;24.30;76.80;;;;;;5049314;28;20072;-65
2022/08/20 11:59:30;;;;;;;4.47;1.13;;;24.50;76.30;;;;;;5041148;28;20355;-66
2022/08/20 12:01:57;;;;;;;8.00;1.33;;;24.80;75.80;;;;;;5042220;28;20136;-65
2022/08/20 12:04:23;;;;;;;5.78;1.20;;;25.10;76.10;;;;;;5039186;28;20055;-64
2022/08/20 12:06:49;;;;;;;4.38;1.25;;;25.20;76.50;;;;;;5038419;28;20041;-65
2022/08/20 12:09:16;;;;;;;6.43;1.35;;;25.30;75.20;;;;;;5047532;28;20049;-64
2022/08/20 12:11:42;;;;;;;4.72;1.50;;;25.20;74.60;;;;;;5044719;28;20059;-65
2022/08/20 12:14:07;;;;;;;5.90;1.25;;;25.30;74.00;;;;;;5035341;28;20049;-65
2022/08/20 12:16:33;;;;;;;5.68;1.35;;;25.40;74.00;;;;;;5027123;28;20076;-65
2022/08/20 12:18:58;;;;;;;4.55;1.25;;;25.30;74.50;;;;;;5034574;28;20425;-65
2022/08/20 12:21:24;;;;;;;6.00;1.58;;;25.20;73.60;;;;;;5041324;28;20114;-65
2022/08/20 12:23:49;;;;;;;4.88;1.30;;;25.20;73.00;;;;;;5047165;28;20081;-65
2022/08/20 12:26:15;;;;;;;4.53;1.40;;;25.20;72.70;;;;;;5043555;28;20484;-65
2022/08/20 12:28:41;;;;;;;6.30;1.60;;;25.30;72.20;;;;;;5045553;28;20052;-65
2022/08/20 12:31:07;;;;;;;6.50;1.70;;;25.50;72.10;;;;;;5043467;28;20143;-65
2022/08/20 12:33:33;;;;;;;7.63;1.50;;;25.80;73.20;;;;;;5037188;28;20452;-65
2022/08/20 12:35:58;;;;;;;8.55;1.50;;;26.00;72.00;;;;;;5039721;28;20779;-65
2022/08/20 12:38:24;;;;;;;7.70;1.60;;;26.20;72.30;;;;;;5036672;28;20037;-65
2022/08/20 12:40:49;;;;;;;6.88;1.52;;;26.20;70.50;;;;;;5029910;28;20503;-65
2022/08/20 12:43:15;;;;;;;7.22;1.38;;;26.10;70.00;;;;;;5030956;28;20045;-65
2022/08/20 12:45:40;;;;;;;7.38;1.55;;;26.10;70.70;;;;;;5042658;28;20041;-65
2022/08/20 12:48:09;;;;;;;6.88;1.52;;;25.90;70.50;;;;;;5045727;28;20343;-65
2022/08/20 12:50:37;;;;;;;5.93;1.70;;;25.70;70.20;;;;;;5034599;28;20154;-65
2022/08/20 12:53:03;;;;;;;7.35;1.73;;;25.80;70.50;;;;;;5030265;28;20053;-65